createdAt,value
2023-04-14T00:02:14.752Z,4.38
2023-04-14T00:04:41.966Z,3.17
2023-04-14T00:07:09.220Z,3.85
2023-04-14T00:09:36.398Z,3.97
2023-04-14T00:12:03.429Z,3.85
2023-04-14T00:14:30.656Z,3.30
2023-04-14T00:16:57.768Z,3.15
2023-04-14T00:19:24.777Z,3.60
2023-04-14T00:21:52.923Z,3.45
2023-04-14T00:24:20.024Z,3.58
2023-04-14T00:26:47.040Z,3.78
2023-04-14T00:29:14.046Z,4.20
2023-04-14T00:31:41.155Z,3.67
2023-04-14T00:34:08.205Z,4.10
2023-04-14T00:36:35.379Z,4.57
2023-04-14T00:39:02.635Z,3.88
2023-04-14T00:41:36.506Z,3.50
2023-04-14T00:44:03.567Z,3.83
2023-04-14T00:46:30.803Z,4.35
2023-04-14T00:48:58.615Z,4.03
2023-04-14T00:51:27.590Z,3.70
2023-04-14T00:53:56.432Z,3.97
2023-04-14T00:56:26.596Z,3.75
2023-04-14T00:58:54.285Z,2.75
2023-04-14T01:01:21.880Z,3.65
2023-04-14T01:03:49.068Z,3.30
2023-04-14T01:06:16.248Z,3.05
2023-04-14T01:08:43.318Z,3.53
2023-04-14T01:11:28.370Z,3.22
2023-04-14T01:14:18.580Z,3.58
2023-04-14T01:16:49.809Z,3.60
2023-04-14T01:19:44.358Z,3.90
2023-04-14T01:22:13.813Z,3.55
2023-04-14T01:24:43.528Z,3.97
2023-04-14T01:27:51.620Z,3.85
2023-04-14T01:30:33.681Z,3.70
2023-04-14T01:33:05.968Z,3.42
2023-04-14T01:35:40.865Z,3.20
2023-04-14T01:38:12.702Z,3.78
2023-04-14T01:40:43.238Z,3.28
2023-04-14T01:43:13.048Z,3.10
2023-04-14T01:45:44.716Z,3.92
2023-04-14T01:48:12.884Z,3.80
2023-04-14T01:50:43.591Z,3.50
2023-04-14T01:53:13.617Z,3.20
2023-04-14T01:55:42.270Z,3.00
2023-04-14T01:58:11.195Z,3.38
2023-04-14T02:00:40.045Z,3.00
2023-04-14T02:03:07.562Z,3.10
2023-04-14T02:05:38.308Z,3.38
2023-04-14T02:08:11.336Z,3.50
2023-04-14T02:10:41.779Z,2.85
2023-04-14T02:13:10.736Z,2.97
2023-04-14T02:15:37.793Z,3.47
2023-04-14T02:18:08.360Z,3.28
2023-04-14T02:20:42.794Z,3.25
2023-04-14T02:23:15.337Z,2.60
2023-04-14T02:25:52.164Z,3.30
2023-04-14T02:28:21.789Z,2.90
2023-04-14T02:30:54.364Z,2.50
2023-04-14T02:33:23.915Z,2.63
2023-04-14T02:35:59.835Z,2.45
2023-04-14T02:38:35.186Z,2.22
2023-04-14T02:41:11.783Z,2.38
2023-04-14T02:43:50.821Z,1.80
2023-04-14T02:46:21.792Z,2.17
2023-04-14T02:48:50.630Z,2.15
2023-04-14T02:51:19.482Z,2.78
2023-04-14T02:53:47.718Z,1.77
2023-04-14T02:56:15.743Z,2.10
2023-04-14T02:58:43.538Z,2.35
2023-04-14T03:01:11.722Z,2.00
2023-04-14T03:03:40.192Z,2.17
2023-04-14T03:06:08.690Z,2.10
2023-04-14T03:08:37.515Z,2.70
2023-04-14T03:11:05.833Z,2.70
2023-04-14T03:13:34.700Z,2.08
2023-04-14T03:16:03.895Z,2.50
2023-04-14T03:18:32.496Z,2.83
2023-04-14T03:21:02.659Z,2.10
2023-04-14T03:23:31.429Z,1.75
2023-04-14T03:25:59.830Z,2.00
2023-04-14T03:28:30.562Z,1.83
2023-04-14T03:31:01.807Z,1.80
2023-04-14T03:33:31.165Z,1.60
2023-04-14T03:35:59.869Z,1.70
2023-04-14T03:38:28.508Z,1.85
2023-04-14T03:41:00.139Z,1.05
2023-04-14T03:43:33.593Z,1.80
2023-04-14T03:46:00.828Z,1.88
2023-04-14T03:48:34.531Z,2.20
2023-04-14T03:51:04.330Z,1.58
2023-04-14T03:53:34.997Z,1.48
2023-04-14T03:56:04.541Z,1.25
2023-04-14T03:58:32.815Z,1.50
2023-04-14T04:01:02.106Z,1.23
2023-04-14T04:03:30.222Z,1.45
2023-04-14T04:05:57.570Z,1.50
2023-04-14T04:08:25.642Z,1.52
2023-04-14T04:10:54.795Z,1.20
2023-04-14T04:13:22.816Z,1.00
2023-04-14T04:15:52.081Z,1.08
2023-04-14T04:18:20.973Z,1.15
2023-04-14T04:20:50.070Z,0.90
2023-04-14T04:23:21.968Z,0.90
2023-04-14T04:25:50.316Z,1.20
2023-04-14T04:28:17.478Z,1.20
2023-04-14T04:30:46.737Z,1.05
2023-04-14T04:33:14.320Z,0.90
2023-04-14T04:35:42.749Z,1.00
2023-04-14T04:38:11.763Z,1.45
2023-04-14T04:40:39.128Z,1.30
2023-04-14T04:43:06.318Z,0.95
2023-04-14T04:45:44.638Z,0.90
2023-04-14T04:48:11.659Z,1.08
2023-04-14T04:50:38.618Z,1.05
2023-04-14T04:53:05.607Z,1.10
2023-04-14T04:55:32.657Z,0.77
2023-04-14T04:57:59.680Z,1.00
2023-04-14T05:00:27.476Z,1.08
2023-04-14T05:02:54.455Z,1.02
2023-04-14T05:05:21.710Z,0.98
2023-04-14T05:07:48.686Z,0.77
2023-04-14T05:10:15.735Z,0.85
2023-04-14T05:12:42.711Z,0.77
2023-04-14T05:15:10.080Z,0.80
2023-04-14T05:17:37.588Z,0.90
2023-04-14T05:20:05.832Z,0.95
2023-04-14T05:22:33.519Z,1.23
2023-04-14T05:25:00.502Z,1.10
2023-04-14T05:27:27.574Z,0.80
2023-04-14T05:29:54.610Z,1.10
2023-04-14T05:32:22.440Z,1.02
2023-04-14T05:34:49.616Z,1.02
2023-04-14T05:37:17.379Z,1.30
2023-04-14T05:39:45.083Z,1.10
2023-04-14T05:42:12.109Z,1.40
2023-04-14T05:44:39.219Z,1.50
2023-04-14T05:47:06.366Z,1.20
2023-04-14T05:49:33.411Z,1.38
2023-04-14T05:52:00.480Z,1.30
2023-04-14T05:54:27.557Z,1.40
2023-04-14T05:56:54.579Z,1.45
2023-04-14T05:59:21.794Z,1.33
2023-04-14T06:01:48.965Z,1.15
2023-04-14T06:04:16.401Z,1.27
2023-04-14T06:06:43.938Z,1.30
2023-04-14T06:09:10.925Z,1.30
2023-04-14T06:11:38.820Z,1.52
2023-04-14T06:14:07.574Z,1.40
2023-04-14T06:16:34.757Z,1.60
2023-04-14T06:19:02.158Z,1.30
2023-04-14T06:21:29.406Z,1.55
2023-04-14T06:23:56.693Z,1.27
2023-04-14T06:26:23.692Z,1.50
2023-04-14T06:28:50.733Z,1.88
2023-04-14T06:31:17.758Z,1.50
2023-04-14T06:33:44.862Z,1.40
2023-04-14T06:36:11.938Z,1.48
2023-04-14T06:38:38.942Z,1.40
2023-04-14T06:41:06.106Z,1.05
2023-04-14T06:43:33.287Z,1.70
2023-04-14T06:46:00.317Z,1.67
2023-04-14T06:48:27.554Z,1.70
2023-04-14T06:50:56.241Z,1.48
2023-04-14T06:53:23.850Z,1.50
2023-04-14T06:55:59.735Z,2.25
2023-04-14T06:58:28.945Z,1.55
2023-04-14T07:00:57.609Z,1.58
2023-04-14T07:03:25.070Z,1.55
2023-04-14T07:05:53.160Z,1.77
2023-04-14T07:08:21.457Z,1.50
2023-04-14T07:10:48.780Z,1.52
2023-04-14T07:13:15.780Z,1.55
2023-04-14T07:15:47.838Z,2.58
2023-04-14T07:18:15.577Z,1.88
2023-04-14T07:20:42.613Z,1.77
2023-04-14T07:23:09.759Z,1.77
2023-04-14T07:25:36.881Z,2.00
2023-04-14T07:28:06.350Z,2.10
2023-04-14T07:30:33.474Z,1.50
2023-04-14T07:33:04.628Z,1.60
2023-04-14T07:35:31.658Z,1.40
2023-04-14T07:37:58.606Z,1.35
2023-04-14T07:40:26.238Z,1.55
2023-04-14T07:42:53.318Z,0.88
2023-04-14T07:45:20.332Z,1.30
2023-04-14T07:47:47.463Z,1.25
2023-04-14T07:50:16.201Z,1.00
2023-04-14T07:52:44.896Z,1.40
2023-04-14T07:55:12.055Z,1.30
2023-04-14T07:57:40.592Z,1.00
2023-04-14T08:00:10.198Z,1.00
2023-04-14T08:02:37.836Z,1.00
2023-04-14T08:05:05.879Z,1.00
2023-04-14T08:07:33.108Z,1.27
2023-04-14T08:10:00.180Z,1.10
2023-04-14T08:12:27.173Z,1.00
2023-04-14T08:14:54.271Z,0.70
2023-04-14T08:17:21.623Z,1.20
2023-04-14T08:19:48.717Z,0.90
2023-04-14T08:22:16.029Z,1.25
2023-04-14T08:24:42.974Z,0.95
2023-04-14T08:27:10.024Z,0.80
2023-04-14T08:29:37.030Z,1.02
2023-04-14T08:32:05.115Z,0.70
2023-04-14T08:34:32.182Z,0.77
2023-04-14T08:37:00.729Z,1.25
2023-04-14T08:39:28.290Z,1.55
2023-04-14T08:41:57.359Z,1.73
2023-04-14T08:44:24.419Z,1.30
2023-04-14T08:46:55.945Z,1.08
2023-04-14T08:49:38.983Z,1.10
2023-04-14T08:52:10.236Z,1.00
2023-04-14T08:54:39.459Z,0.73
2023-04-14T08:57:12.530Z,0.80
2023-04-14T08:59:40.728Z,0.80
2023-04-14T09:02:09.756Z,1.00
2023-04-14T09:04:40.492Z,1.13
2023-04-14T09:07:08.293Z,1.30
2023-04-14T09:09:35.631Z,0.98
2023-04-14T09:12:05.084Z,0.70
2023-04-14T09:14:33.617Z,1.20
2023-04-14T09:17:00.717Z,0.70
2023-04-14T09:19:29.228Z,0.80
2023-04-14T09:21:56.775Z,0.77
2023-04-14T09:24:32.442Z,0.75
2023-04-14T09:27:08.012Z,0.70
2023-04-14T09:29:36.620Z,1.00
2023-04-14T09:32:06.341Z,1.33
2023-04-14T09:34:33.502Z,0.90
2023-04-14T09:37:07.201Z,0.80
2023-04-14T09:39:36.029Z,1.27
2023-04-14T09:42:04.838Z,1.20
2023-04-14T09:44:31.867Z,1.20
2023-04-14T09:47:07.773Z,1.50
2023-04-14T09:49:35.783Z,1.00
2023-04-14T09:52:09.616Z,1.25
2023-04-14T09:54:40.136Z,1.70
2023-04-14T09:57:07.744Z,1.30
2023-04-14T09:59:39.037Z,1.50
2023-04-14T10:02:10.281Z,1.40
2023-04-14T10:04:38.422Z,1.60
2023-04-14T10:07:12.354Z,1.80
2023-04-14T10:09:40.859Z,1.63
2023-04-14T10:12:13.461Z,1.40
2023-04-14T10:14:44.774Z,1.88
2023-04-14T10:17:11.977Z,1.15
2023-04-14T10:19:39.036Z,1.85
2023-04-14T10:22:06.673Z,1.13
2023-04-14T10:24:35.267Z,1.20
2023-04-14T10:27:03.733Z,1.10
2023-04-14T10:29:31.501Z,1.00
2023-04-14T10:32:06.170Z,1.30
2023-04-14T10:34:33.849Z,1.40
2023-04-14T10:37:16.910Z,1.25
2023-04-14T10:39:43.989Z,1.58
2023-04-14T10:42:11.143Z,1.00
2023-04-14T10:44:38.271Z,1.40
2023-04-14T10:47:08.396Z,1.02
2023-04-14T10:49:41.281Z,0.93
2023-04-14T10:52:17.591Z,0.93
2023-04-14T10:55:01.580Z,1.15
2023-04-14T10:57:29.879Z,0.90
2023-04-14T10:59:59.548Z,0.80
2023-04-14T11:02:30.055Z,0.85
2023-04-14T11:05:09.147Z,0.80
2023-04-14T11:07:45.856Z,0.70
2023-04-14T11:10:22.132Z,0.90
2023-04-14T11:13:11.257Z,1.23
2023-04-14T11:15:51.356Z,1.00
2023-04-14T11:18:34.207Z,1.35
2023-04-14T11:21:16.273Z,1.60
2023-04-14T11:23:44.094Z,1.20
2023-04-14T11:26:13.703Z,1.05
2023-04-14T11:28:47.067Z,1.00
2023-04-14T11:31:21.764Z,1.33
2023-04-14T11:33:51.236Z,1.80
2023-04-14T11:36:18.218Z,1.83
2023-04-14T11:38:46.014Z,1.40
2023-04-14T11:41:15.564Z,1.85
2023-04-14T11:43:47.039Z,1.48
2023-04-14T11:46:15.732Z,1.50
2023-04-14T11:48:42.957Z,1.30
2023-04-14T11:51:09.950Z,1.40
2023-04-14T11:53:40.080Z,1.15
2023-04-14T11:56:12.095Z,1.08
2023-04-14T11:58:39.171Z,1.05
2023-04-14T12:01:06.936Z,0.90
2023-04-14T12:03:36.158Z,1.30
2023-04-14T12:06:03.983Z,1.08
2023-04-14T12:08:32.323Z,1.10
2023-04-14T12:11:12.008Z,1.63
2023-04-14T12:13:43.687Z,0.90
2023-04-14T12:16:12.110Z,1.45
2023-04-14T12:18:40.003Z,1.10
2023-04-14T12:21:09.884Z,1.00
2023-04-14T12:23:42.511Z,1.02
2023-04-14T12:26:12.177Z,1.40
2023-04-14T12:28:41.596Z,1.13
2023-04-14T12:31:10.737Z,1.42
2023-04-14T12:33:38.348Z,0.95
2023-04-14T12:36:12.995Z,1.50
2023-04-14T12:38:40.291Z,1.40
2023-04-14T12:41:07.517Z,1.75
2023-04-14T12:43:38.085Z,1.85
2023-04-14T12:46:06.240Z,1.52
2023-04-14T12:48:45.952Z,1.30
2023-04-14T12:51:18.138Z,1.05
2023-04-14T12:53:47.059Z,1.30
2023-04-14T12:56:22.741Z,1.30
2023-04-14T12:58:51.347Z,1.27
2023-04-14T13:01:21.161Z,1.85
2023-04-14T13:03:52.020Z,1.42
2023-04-14T13:06:22.076Z,1.42
2023-04-14T13:08:50.556Z,1.13
2023-04-14T13:11:19.467Z,1.30
2023-04-14T13:13:47.230Z,1.00
2023-04-14T13:16:16.687Z,0.95
2023-04-14T13:18:46.832Z,0.60
2023-04-14T13:21:14.401Z,0.80
2023-04-14T13:23:41.870Z,0.88
2023-04-14T13:26:09.216Z,0.77
2023-04-14T13:28:37.197Z,0.75
2023-04-14T13:31:04.432Z,0.60
2023-04-14T13:33:33.319Z,0.70
2023-04-14T13:36:04.339Z,0.70
2023-04-14T13:38:31.977Z,0.50
2023-04-14T13:40:59.049Z,0.70
2023-04-14T13:43:26.681Z,0.70
2023-04-14T13:45:58.204Z,0.50
2023-04-14T13:48:26.204Z,0.50
2023-04-14T13:50:54.679Z,0.60
2023-04-14T13:53:21.853Z,0.50
2023-04-14T13:55:48.899Z,0.50
2023-04-14T13:58:16.054Z,0.60
2023-04-14T14:00:43.240Z,0.77
2023-04-14T14:03:10.606Z,0.68
2023-04-14T14:05:37.727Z,0.70
2023-04-14T14:08:04.765Z,0.60
2023-04-14T14:10:31.735Z,0.50
2023-04-14T14:12:58.788Z,0.80
2023-04-14T14:15:26.013Z,1.20
2023-04-14T14:17:55.748Z,0.70
2023-04-14T14:20:22.861Z,0.70
2023-04-14T14:22:49.848Z,0.70
2023-04-14T14:25:20.134Z,0.68
2023-04-14T14:27:51.942Z,1.00
2023-04-14T14:30:19.049Z,1.40
2023-04-14T14:32:46.114Z,1.70
2023-04-14T14:35:13.119Z,1.70
2023-04-14T14:37:41.055Z,1.10
2023-04-14T14:40:08.830Z,1.10
2023-04-14T14:42:35.977Z,0.90
2023-04-14T14:45:04.029Z,0.98
2023-04-14T14:47:31.937Z,0.60
2023-04-14T14:50:03.480Z,0.90
2023-04-14T14:52:34.275Z,0.70
2023-04-14T14:55:02.409Z,0.82
2023-04-14T14:57:30.615Z,0.82
2023-04-14T14:59:58.069Z,0.68
2023-04-14T15:02:25.866Z,0.80
2023-04-14T15:04:54.399Z,0.70
2023-04-14T15:07:21.466Z,0.85
2023-04-14T15:09:50.589Z,0.80
2023-04-14T15:12:18.315Z,0.65
2023-04-14T15:14:45.366Z,0.90
2023-04-14T15:17:12.466Z,0.80
2023-04-14T15:19:39.732Z,0.90
2023-04-14T15:22:08.233Z,0.90
2023-04-14T15:24:35.391Z,0.90
2023-04-14T15:27:02.906Z,1.10
2023-04-14T15:29:30.865Z,2.13
2023-04-14T15:31:58.144Z,1.23
2023-04-14T15:34:25.421Z,1.40
2023-04-14T15:36:52.356Z,1.00
2023-04-14T15:39:19.338Z,1.17
2023-04-14T15:41:47.686Z,0.88
2023-04-14T15:44:14.683Z,1.02
2023-04-14T15:46:41.670Z,1.40
2023-04-14T15:49:08.619Z,1.13
2023-04-14T15:51:35.655Z,0.98
2023-04-14T15:54:02.806Z,1.00
2023-04-14T15:56:30.287Z,0.75
2023-04-14T15:58:57.543Z,0.73
2023-04-14T16:01:24.711Z,0.80
2023-04-14T16:03:52.948Z,0.85
2023-04-14T16:06:20.393Z,1.02
2023-04-14T16:08:47.562Z,1.45
2023-04-14T16:11:17.230Z,1.48
2023-04-14T16:13:44.658Z,1.83
2023-04-14T16:16:16.271Z,2.03
2023-04-14T16:18:43.287Z,1.75
2023-04-14T16:21:10.709Z,1.30
2023-04-14T16:23:37.748Z,1.15
2023-04-14T16:26:04.914Z,0.95
2023-04-14T16:28:32.305Z,1.27
2023-04-14T16:31:00.298Z,1.30
2023-04-14T16:33:27.943Z,1.40
2023-04-14T16:35:58.781Z,1.00
2023-04-14T16:38:26.228Z,1.27
2023-04-14T16:40:57.652Z,1.17
2023-04-14T16:43:26.693Z,1.08
2023-04-14T16:46:00.142Z,1.20
2023-04-14T16:48:28.109Z,1.23
2023-04-14T16:50:56.567Z,0.88
2023-04-14T16:53:24.096Z,1.90
2023-04-14T16:55:51.719Z,1.65
2023-04-14T16:58:18.946Z,0.85
2023-04-14T17:00:46.468Z,1.10
2023-04-14T17:03:13.708Z,0.80
2023-04-14T17:05:42.435Z,1.75
2023-04-14T17:08:09.780Z,1.45
2023-04-14T17:10:38.906Z,0.80
2023-04-14T17:13:06.420Z,1.00
2023-04-14T17:15:33.799Z,1.13
2023-04-14T17:18:01.556Z,0.95
2023-04-14T17:20:29.034Z,1.00
2023-04-14T17:22:59.535Z,1.17
2023-04-14T17:25:27.536Z,1.00
2023-04-14T17:27:55.001Z,1.10
2023-04-14T17:30:22.226Z,1.05
2023-04-14T17:32:49.571Z,1.30
2023-04-14T17:35:17.138Z,1.38
2023-04-14T17:37:46.007Z,1.15
2023-04-14T17:40:14.971Z,1.30
2023-04-14T17:42:42.629Z,1.42
2023-04-14T17:45:10.340Z,1.10
2023-04-14T17:47:40.084Z,0.95
2023-04-14T17:50:08.153Z,1.50
2023-04-14T17:52:36.540Z,1.10
2023-04-14T17:55:04.829Z,0.95
2023-04-14T17:57:32.185Z,0.85
2023-04-14T17:59:59.395Z,0.90
2023-04-14T18:02:28.298Z,0.93
2023-04-14T18:04:56.234Z,1.27
2023-04-14T18:07:24.062Z,1.10
2023-04-14T18:09:57.213Z,1.10
2023-04-14T18:12:25.949Z,1.30
2023-04-14T18:14:53.943Z,1.08
2023-04-14T18:17:22.664Z,1.20
2023-04-14T18:19:50.235Z,1.25
2023-04-14T18:22:17.891Z,1.63
2023-04-14T18:24:48.497Z,0.95
2023-04-14T18:29:48.084Z,0.90
2023-04-14T18:32:16.567Z,1.40
2023-04-14T18:34:44.116Z,1.10
2023-04-14T18:37:12.115Z,1.10
2023-04-14T18:39:40.634Z,1.40
2023-04-14T18:42:09.595Z,1.63
2023-04-14T18:44:37.376Z,1.42
2023-04-14T18:47:05.343Z,0.90
2023-04-14T18:49:32.879Z,0.98
2023-04-14T18:52:01.317Z,0.85
2023-04-14T18:54:29.011Z,0.90
2023-04-14T18:56:56.548Z,0.80
2023-04-14T18:59:24.843Z,1.00
2023-04-14T19:01:54.257Z,0.98
2023-04-14T19:04:22.166Z,0.77
2023-04-14T19:06:50.306Z,0.98
2023-04-14T19:09:22.536Z,0.98
2023-04-14T19:11:50.411Z,0.75
2023-04-14T19:14:19.256Z,0.80
2023-04-14T19:16:46.897Z,0.80
2023-04-14T19:19:15.057Z,0.90
2023-04-14T19:21:42.663Z,1.08
2023-04-14T19:24:10.361Z,1.00
2023-04-14T19:26:41.104Z,0.73
2023-04-14T19:29:09.361Z,0.90
2023-04-14T19:31:36.645Z,0.90
2023-04-14T19:34:04.154Z,0.80
2023-04-14T19:36:35.877Z,0.50
2023-04-14T19:39:06.749Z,0.68
2023-04-14T19:41:35.085Z,0.90
2023-04-14T19:44:04.575Z,1.17
2023-04-14T19:46:33.105Z,0.80
2023-04-14T19:49:04.002Z,1.10
2023-04-14T19:51:32.525Z,0.80
2023-04-14T19:54:02.284Z,0.93
2023-04-14T19:56:29.985Z,0.90
2023-04-14T19:58:59.202Z,0.60
2023-04-14T20:01:27.756Z,1.00
2023-04-14T20:04:08.405Z,0.50
2023-04-14T20:06:41.786Z,0.80
2023-04-14T20:09:12.314Z,0.80
2023-04-14T20:11:39.715Z,0.88
2023-04-14T20:14:07.647Z,0.80
2023-04-14T20:16:37.629Z,1.00
2023-04-14T20:19:05.653Z,0.82
2023-04-14T20:21:34.386Z,1.08
2023-04-14T20:24:02.052Z,0.90
2023-04-14T20:26:29.788Z,0.80
2023-04-14T20:28:57.800Z,0.80
2023-04-14T20:31:26.323Z,0.80
2023-04-14T20:33:53.521Z,0.85
2023-04-14T20:36:20.575Z,0.82
2023-04-14T20:38:48.208Z,1.02
2023-04-14T20:41:15.411Z,1.00
2023-04-14T20:43:44.171Z,1.08
2023-04-14T20:46:11.549Z,1.00
2023-04-14T20:48:38.973Z,0.80
2023-04-14T20:51:06.706Z,0.80
2023-04-14T20:53:35.312Z,0.90
2023-04-14T20:56:02.525Z,0.65
2023-04-14T20:58:29.831Z,0.80
2023-04-14T21:00:58.146Z,0.90
2023-04-14T21:03:25.669Z,1.15
2023-04-14T21:05:53.832Z,0.98
2023-04-14T21:08:21.636Z,0.88
2023-04-14T21:11:15.268Z,0.90
2023-04-14T21:15:30.356Z,1.33
2023-04-14T21:16:28.465Z,0.73
2023-04-14T21:18:55.958Z,1.25
2023-04-14T21:21:22.954Z,0.90
2023-04-14T21:23:50.109Z,0.90
2023-04-14T21:26:18.259Z,1.08
2023-04-14T21:28:45.388Z,0.70
2023-04-14T21:31:12.418Z,0.90
2023-04-14T21:33:41.761Z,0.77
2023-04-14T21:36:12.037Z,0.63
2023-04-14T21:38:39.430Z,0.50
2023-04-14T21:41:10.656Z,1.25
2023-04-14T21:43:41.887Z,0.73
2023-04-14T21:46:08.994Z,0.80
2023-04-14T21:48:36.725Z,0.93
2023-04-14T21:51:03.926Z,0.80
2023-04-14T21:53:31.942Z,0.85
2023-04-14T21:56:10.513Z,0.75
2023-04-14T21:58:41.382Z,0.93
2023-04-14T22:01:10.296Z,1.23
2023-04-14T22:03:40.796Z,1.33
2023-04-14T22:06:10.194Z,1.67
2023-04-14T22:08:38.620Z,2.40
2023-04-14T22:11:07.124Z,0.98
2023-04-14T22:13:34.201Z,1.10
2023-04-14T22:16:01.248Z,1.73
2023-04-14T22:18:29.007Z,1.30
2023-04-14T22:20:56.023Z,1.35
2023-04-14T22:23:23.472Z,0.90
2023-04-14T22:25:50.980Z,1.70
2023-04-14T22:28:17.923Z,1.00
2023-04-14T22:30:45.196Z,1.10
2023-04-14T22:33:12.367Z,1.00
2023-04-14T22:35:39.742Z,1.42
2023-04-14T22:38:07.234Z,1.20
2023-04-14T22:40:34.236Z,1.27
2023-04-14T22:43:02.224Z,1.25
2023-04-14T22:45:29.313Z,1.35
2023-04-14T22:47:56.464Z,1.20
2023-04-14T22:50:23.546Z,0.90
2023-04-14T22:52:50.542Z,1.10
2023-04-14T22:55:17.654Z,1.60
2023-04-14T22:57:44.764Z,1.00
2023-04-14T23:00:12.353Z,0.80
2023-04-14T23:02:42.504Z,1.08
2023-04-14T23:05:13.112Z,0.80
2023-04-14T23:07:40.950Z,0.65
2023-04-14T23:10:09.418Z,0.80
2023-04-14T23:12:36.771Z,0.75
2023-04-14T23:15:06.870Z,0.82
2023-04-14T23:17:34.649Z,0.70
2023-04-14T23:20:02.520Z,0.70
2023-04-14T23:22:29.817Z,0.88
2023-04-14T23:24:56.925Z,0.88
2023-04-14T23:27:23.949Z,0.63
2023-04-14T23:29:51.123Z,0.70
2023-04-14T23:32:18.152Z,0.75
2023-04-14T23:34:45.697Z,0.90
2023-04-14T23:37:13.554Z,0.90
2023-04-14T23:39:41.049Z,0.60
2023-04-14T23:42:08.879Z,1.10
2023-04-14T23:44:36.076Z,1.02
2023-04-14T23:47:03.340Z,0.65
2023-04-14T23:49:34.790Z,0.70
2023-04-14T23:52:03.418Z,0.55
2023-04-14T23:54:31.836Z,0.95
2023-04-14T23:56:58.917Z,0.60
2023-04-14T23:59:26.661Z,0.50
